WEERSPREUK VAN DE DAG: Brengt oktober vorst en sneeuw, men hoort in de winter veel klaaggeschreeuw.
Het weer levert geen direct gevaar op.    Er zijn geen waarschuwingen afgegeven.


Onweer radar Meer informatie blitzortung!


Regen radar Meer informatie rain snow radar


Bekijk deze sites ook eens:

FPL Automotive (TIP)

Autostekkers.nl (TIP)

Over Luyksgestel

BOL.com

Weerstation Noordbergum

Weerstation Afferden

Drone kopen?

Weerstation Hapert

Weerstation Hoogeloon

Weerstation Hechtel (B)

Weerstation Son&Breugel

Weerstation Castaert

Kamera Express

Smartphonehoesjes

Weerstation Tilburg Reeshof

Weerstation Scheulder

Samostour webcams

Samos actueel

Weerwoord (forum)

Griekenlandforum

Vakantie naar Samos

Alpenweerman

Wintersportweerman

Sneeuwhoogte Oostenrijk

Sneeuwhoogte Zwitserland

Sneeuwhoogte Duitsland

Sneeuwhoogte Italie

Sneeuwhoogte Frankrijk

Winterzon

Webcams Gargellen

Wintersportweer



METAR rapporten vliegvelden

   
EBAW - Antwerp
Gewijzigd: 23-10-2017 14:50
Grotendeels bewolkt  
Grotendeels bewolkt  
   Wind: Westen 20.4 km/h
Wind: Westen 20.4 km/h
Temperatuur: 14°C
Dauwpunt: 10°C
Vochtigheid: 77%
Barometer: 1020 hPa
Bewolking: Grotendeels bewolkt
Zicht: meer dan 10 km
Bewolking: Licht bewolkt 2200 ft,
Grotendeels bewolkt 4900 ft
EBAW 231250Z 26011KT 230V300 9999 FEW022 BKN049 14/10 Q1020 NOSIG
EBLG - Liège
Gewijzigd: 23-10-2017 14:50
Gedeeltelijk bewolkt  
Gedeeltelijk bewolkt  
   Wind: WZW 20.4 km/h
Wind: WZW 20.4 km/h
Temperatuur: 13°C
Dauwpunt: 8°C
Vochtigheid: 72%
Barometer: 1020 hPa
Bewolking: Gedeeltelijk bewolkt
Zicht: meer dan 10 km
Bewolking: Gedeeltelijk bewolkt 2500 ft
EBLG 231250Z 25011KT 9999 SCT025 13/08 Q1020 NOSIG
EBCV - Mons/Bergen
Gewijzigd: 23-10-2017 14:55
Bewolking  
Bewolking  
   Wind: ZW 18.5 km/h
Wind: ZW 18.5 km/h
Temperatuur: 13°C
Dauwpunt: 11°C
Vochtigheid: 88%
Barometer: 1021 hPa
Bewolking: Bewolking
Zicht: 5 km
Bewolking: Bewolking 1200 ft
EBCV 231255Z AUTO 23010KT 5000 OVC012/// 13/11 Q1021 GRN
EHBK - Maastricht
Gewijzigd: 23-10-2017 14:55
Grotendeels bewolkt  
Grotendeels bewolkt  
   Wind: WZW 20.4 km/h
Wind: WZW 20.4 km/h
Temperatuur: 13°C
Dauwpunt: 8°C
Vochtigheid: 72%
Barometer: 1020 hPa
Bewolking: Grotendeels bewolkt
Zicht: meer dan 10 km
Bewolking: Licht bewolkt 3900 ft,
Grotendeels bewolkt 4600 ft
EHBK 231255Z AUTO 24011KT 190V290 9999 FEW039 BKN046 13/08 Q1020 NOSIG
ELLX - Luxemburg
Gewijzigd: 23-10-2017 14:50
Lichte (mot)regen, Grotendeels bewolkt  
Lichte (mot)regen, Grotendeels bewolkt  
   Wind: WZW 16.7 km/h
Wind: WZW 16.7 km/h
Temperatuur: 9°C
Voelt als: 7°C
Dauwpunt: 9°C
Vochtigheid: 100%
Barometer: 1022 hPa
Bewolking: Grotendeels bewolkt
Zicht: meer dan 10 km
Bewolking: Licht bewolkt 600 ft,
Grotendeels bewolkt 900 ft,
Grotendeels bewolkt 1300 ft
ELLX 231250Z 25009KT 9999 -DZ FEW006 BKN009 BKN013 09/09 Q1022 NOSIG
EBOS - Oostende
Gewijzigd: 23-10-2017 14:50
Wat regen mogelijk, Motregen, Grotendeels bewolkt  
Wat regen mogelijk, Motregen, Grotendeels bewolkt  
   Wind: ZZW 18.5 km/h
Wind: ZZW 18.5 km/h
Temperatuur: 13°C
Dauwpunt: 11°C
Vochtigheid: 88%
Barometer: 1019 hPa
Bewolking: Grotendeels bewolkt
Zicht: 5 km
Bewolking: Gedeeltelijk bewolkt 700 ft,
Grotendeels bewolkt 1300 ft
EBOS 231250Z 20010KT 5000 -RADZ SCT007 BKN013 13/11 Q1019 BECMG 4000 -RADZ BKN009

Script ontwikkeld door  Saratoga-weather.org Aangepast voor de template door  Weerstation Leuven

U vindt ons ook hier:

UK Metoffice

Weather Underground

AWEKAS